createdAt,value
2023-03-19T00:01:04.546Z,61.20
2023-03-19T00:03:32.452Z,61.20
2023-03-19T00:06:00.365Z,61.20
2023-03-19T00:08:29.882Z,61.30
2023-03-19T00:10:57.744Z,61.40
2023-03-19T00:13:25.802Z,61.40
2023-03-19T00:15:53.688Z,61.30
2023-03-19T00:18:22.661Z,61.60
2023-03-19T00:20:54.985Z,61.70
2023-03-19T00:23:22.985Z,61.50
2023-03-19T00:25:52.134Z,61.60
2023-03-19T00:28:19.947Z,61.20
2023-03-19T00:31:28.263Z,60.70
2023-03-19T00:34:03.910Z,60.70
2023-03-19T00:36:36.339Z,60.20
2023-03-19T00:39:04.851Z,60.50
2023-03-19T00:41:34.350Z,59.90
2023-03-19T00:44:04.900Z,59.50
2023-03-19T00:46:33.555Z,59.50
2023-03-19T00:49:04.496Z,59.20
2023-03-19T00:51:32.554Z,59.30
2023-03-19T00:54:00.390Z,59.00
2023-03-19T00:56:28.490Z,59.00
2023-03-19T00:59:07.578Z,58.90
2023-03-19T01:01:35.824Z,58.60
2023-03-19T01:04:03.723Z,58.10
2023-03-19T01:06:31.506Z,57.70
2023-03-19T01:08:59.308Z,56.90
2023-03-19T01:11:27.139Z,56.50
2023-03-19T01:13:56.062Z,56.50
2023-03-19T01:16:25.584Z,56.10
2023-03-19T01:18:55.374Z,56.90
2023-03-19T01:21:23.160Z,56.90
2023-03-19T01:23:51.812Z,56.60
2023-03-19T01:26:22.009Z,56.60
2023-03-19T01:28:49.917Z,55.50
2023-03-19T01:31:17.794Z,55.30
2023-03-19T01:33:47.646Z,55.50
2023-03-19T01:36:15.492Z,55.20
2023-03-19T01:38:43.899Z,56.00
2023-03-19T01:41:11.849Z,56.00
2023-03-19T01:43:39.827Z,56.30
2023-03-19T01:46:14.723Z,56.60
2023-03-19T01:48:45.309Z,56.50
2023-03-19T01:51:17.944Z,56.70
2023-03-19T01:53:50.019Z,56.80
2023-03-19T01:56:22.550Z,56.90
2023-03-19T01:58:54.830Z,56.90
2023-03-19T02:01:23.144Z,57.10
2023-03-19T02:03:53.201Z,57.20
2023-03-19T02:06:24.145Z,57.30
2023-03-19T02:08:53.375Z,57.30
2023-03-19T02:11:21.905Z,57.50
2023-03-19T02:13:49.909Z,57.90
2023-03-19T02:16:18.164Z,57.80
2023-03-19T02:18:46.352Z,58.10
2023-03-19T02:21:16.733Z,58.30
2023-03-19T02:23:52.927Z,58.80
2023-03-19T02:26:24.691Z,58.70
2023-03-19T02:28:54.178Z,59.00
2023-03-19T02:31:22.625Z,59.00
2023-03-19T02:33:59.679Z,59.10
2023-03-19T02:36:30.940Z,59.00
2023-03-19T02:39:02.041Z,59.00
2023-03-19T02:41:34.485Z,59.00
2023-03-19T02:44:04.369Z,59.00
2023-03-19T02:46:32.561Z,59.00
2023-03-19T02:49:00.343Z,59.10
2023-03-19T02:51:28.130Z,58.90
2023-03-19T02:53:55.835Z,59.00
2023-03-19T02:56:23.732Z,58.70
2023-03-19T02:58:52.851Z,58.40
2023-03-19T03:01:21.104Z,58.10
2023-03-19T03:03:48.916Z,58.30
2023-03-19T03:06:17.942Z,57.90
2023-03-19T03:08:45.956Z,57.90
2023-03-19T03:11:13.750Z,57.80
2023-03-19T03:13:41.540Z,57.60
2023-03-19T03:16:12.261Z,57.70
2023-03-19T03:18:42.392Z,57.40
2023-03-19T03:21:10.466Z,57.20
2023-03-19T03:23:38.145Z,57.20
2023-03-19T03:26:06.786Z,57.00
2023-03-19T03:28:34.605Z,56.90
2023-03-19T03:31:03.749Z,56.80
2023-03-19T03:33:32.910Z,56.60
2023-03-19T03:36:01.248Z,56.80
2023-03-19T03:38:29.137Z,56.70
2023-03-19T03:40:56.940Z,56.60
2023-03-19T03:43:24.765Z,56.70
2023-03-19T03:45:53.435Z,56.80
2023-03-19T03:48:21.862Z,56.70
2023-03-19T03:50:51.678Z,56.10
2023-03-19T03:53:19.446Z,56.10
2023-03-19T03:55:47.188Z,55.90
2023-03-19T03:58:14.915Z,56.00
2023-03-19T04:00:42.712Z,55.80
2023-03-19T04:03:10.486Z,55.50
2023-03-19T04:05:38.642Z,56.00
2023-03-19T04:08:08.729Z,56.00
2023-03-19T04:10:36.754Z,55.90
2023-03-19T04:13:04.551Z,56.30
2023-03-19T04:15:32.343Z,56.40
2023-03-19T04:18:00.340Z,56.30
2023-03-19T04:20:28.242Z,56.50
2023-03-19T04:22:58.291Z,56.60
2023-03-19T04:25:27.419Z,56.40
2023-03-19T04:27:57.632Z,56.30
2023-03-19T04:30:25.429Z,56.40
2023-03-19T04:32:53.501Z,56.60
2023-03-19T04:35:21.511Z,56.70
2023-03-19T04:37:49.312Z,56.80
2023-03-19T04:40:18.422Z,56.90
2023-03-19T04:42:47.475Z,57.10
2023-03-19T04:45:15.429Z,57.50
2023-03-19T04:47:43.189Z,58.50
2023-03-19T04:50:12.840Z,58.80
2023-03-19T04:52:40.762Z,58.80
2023-03-19T04:55:09.601Z,58.70
2023-03-19T04:57:37.783Z,59.10
2023-03-19T05:00:07.953Z,59.60
2023-03-19T05:02:35.735Z,60.50
2023-03-19T05:05:03.619Z,61.20
2023-03-19T05:07:31.961Z,61.30
2023-03-19T05:09:59.934Z,62.60
2023-03-19T05:12:27.996Z,64.20
2023-03-19T05:14:55.702Z,64.60
2023-03-19T05:17:25.223Z,65.70
2023-03-19T05:19:53.436Z,67.00
2023-03-19T05:22:23.832Z,67.20
2023-03-19T05:24:51.637Z,68.10
2023-03-19T05:27:20.117Z,68.60
2023-03-19T05:29:48.179Z,68.60
2023-03-19T08:08:08.008Z,51.50
2023-03-19T08:10:38.469Z,52.00
2023-03-19T08:13:07.056Z,51.80
2023-03-19T08:15:35.154Z,51.20
2023-03-19T08:18:05.188Z,51.20
2023-03-19T08:20:33.631Z,50.60
2023-03-19T08:23:01.473Z,50.10
2023-03-19T08:25:32.698Z,49.90
2023-03-19T08:28:01.113Z,49.80
2023-03-19T08:30:29.403Z,50.10
2023-03-19T08:32:57.209Z,49.80
2023-03-19T08:35:26.950Z,49.90
2023-03-19T08:37:54.817Z,48.60
2023-03-19T08:40:22.893Z,48.30
2023-03-19T08:42:52.048Z,49.00
2023-03-19T08:45:20.784Z,48.60
2023-03-19T08:48:04.063Z,48.70
2023-03-19T08:50:32.499Z,48.50
2023-03-19T08:53:00.917Z,49.20
2023-03-19T09:02:49.598Z,48.50
2023-03-19T09:05:20.205Z,48.40
2023-03-19T09:07:48.798Z,48.60
2023-03-19T09:10:16.904Z,49.10
2023-03-19T09:12:45.758Z,48.90
2023-03-19T09:15:14.891Z,48.90
2023-03-19T09:17:42.669Z,49.20
2023-03-19T09:20:12.580Z,49.10
2023-03-19T09:23:05.598Z,48.60
2023-03-19T09:25:33.702Z,48.30
2023-03-19T09:28:04.489Z,47.40
2023-03-19T09:30:33.821Z,46.10
2023-03-19T09:33:01.754Z,45.50
2023-03-19T09:35:32.776Z,44.40
2023-03-19T09:38:03.245Z,44.90
2023-03-19T09:40:35.353Z,43.50
2023-03-19T09:43:19.099Z,43.60
2023-03-19T09:45:48.491Z,43.20
2023-03-19T09:48:20.749Z,43.50
2023-03-19T09:50:51.493Z,42.80
2023-03-19T09:53:27.914Z,41.70
2023-03-19T09:55:58.966Z,41.10
2023-03-19T09:58:38.684Z,39.60
2023-03-19T10:01:06.606Z,40.50
2023-03-19T10:03:44.439Z,40.10
2023-03-19T10:06:27.662Z,39.90
2023-03-19T10:09:13.205Z,38.90
2023-03-19T10:11:52.682Z,40.50
2023-03-19T10:14:42.718Z,39.20
2023-03-19T10:17:33.360Z,38.90
2023-03-19T10:20:09.539Z,37.80
2023-03-19T10:22:42.795Z,37.70
2023-03-19T10:25:14.702Z,37.60
2023-03-19T10:27:44.573Z,38.20
2023-03-19T10:30:15.817Z,38.30
2023-03-19T10:32:45.374Z,39.00
2023-03-19T10:35:21.064Z,38.90
2023-03-19T10:37:51.107Z,39.40
2023-03-19T10:40:23.681Z,40.40
2023-03-19T10:43:46.804Z,40.90
2023-03-19T10:46:15.694Z,41.20
2023-03-19T10:48:45.705Z,40.50
2023-03-19T10:51:16.439Z,39.80
2023-03-19T10:53:55.568Z,39.50
2023-03-19T10:56:29.504Z,38.00
2023-03-19T10:59:02.124Z,39.80
2023-03-19T11:01:36.970Z,39.70
2023-03-19T11:04:14.573Z,38.90
2023-03-19T11:06:57.615Z,38.10
2023-03-19T11:10:01.520Z,37.70
2023-03-19T11:12:55.717Z,37.90
2023-03-19T11:15:45.086Z,38.60
2023-03-19T11:18:58.893Z,37.50
2023-03-19T11:21:50.309Z,38.60
2023-03-19T11:24:21.604Z,38.20
2023-03-19T11:26:58.302Z,38.60
2023-03-19T11:29:29.014Z,39.10
2023-03-19T11:32:21.081Z,39.60
2023-03-19T11:35:24.135Z,39.40
2023-03-19T11:38:08.032Z,40.10
2023-03-19T11:40:42.381Z,40.00
2023-03-19T11:43:30.760Z,38.70
2023-03-19T11:46:11.698Z,39.20
2023-03-19T11:49:19.122Z,39.70
2023-03-19T11:52:04.727Z,39.30
2023-03-19T11:54:45.415Z,39.40
2023-03-19T11:57:19.150Z,38.80
2023-03-19T12:00:10.716Z,38.20
2023-03-19T12:02:52.526Z,38.70
2023-03-19T12:05:26.615Z,39.10
2023-03-19T12:08:15.090Z,39.80
2023-03-19T12:10:53.755Z,38.10
2023-03-19T12:13:35.706Z,39.00
2023-03-19T12:16:17.310Z,38.80
2023-03-19T12:19:12.111Z,38.60
2023-03-19T12:21:50.520Z,39.80
2023-03-19T12:24:28.933Z,40.50
2023-03-19T12:27:04.325Z,41.50
2023-03-19T12:29:38.031Z,42.20
2023-03-19T12:32:22.585Z,42.80
2023-03-19T12:34:55.103Z,43.80
2023-03-19T12:37:30.139Z,44.00
2023-03-19T12:40:15.476Z,44.90
2023-03-19T12:42:43.755Z,46.60
2023-03-19T12:45:27.684Z,47.60
2023-03-19T12:48:03.496Z,49.30
2023-03-19T12:50:35.420Z,53.00
2023-03-19T12:53:10.341Z,56.70
2023-03-19T12:55:43.965Z,57.70
2023-03-19T12:58:19.464Z,58.80
2023-03-19T13:00:52.640Z,59.50
2023-03-19T13:03:28.483Z,60.50
2023-03-19T13:06:01.131Z,61.00
2023-03-19T13:08:36.175Z,59.70
2023-03-19T13:11:11.739Z,60.00
2023-03-19T13:13:46.612Z,59.80
2023-03-19T13:16:27.884Z,59.00
2023-03-19T13:19:06.481Z,59.40
2023-03-19T13:21:37.933Z,58.90
2023-03-19T13:24:13.397Z,60.30
2023-03-19T13:26:41.533Z,61.20
2023-03-19T13:29:17.027Z,61.80
2023-03-19T13:31:46.264Z,62.90
2023-03-19T13:34:28.467Z,63.50
2023-03-19T13:37:02.748Z,65.00
2023-03-19T13:39:33.531Z,66.20
2023-03-19T13:42:42.584Z,67.60
2023-03-19T13:45:32.365Z,69.50
2023-03-19T13:48:25.692Z,75.50
2023-03-19T13:50:57.347Z,83.40
2023-03-19T13:53:38.088Z,91.20
2023-03-19T13:56:28.969Z,94.10
2023-03-19T13:59:23.659Z,96.30
2023-03-19T14:01:51.767Z,97.90
2023-03-19T14:04:25.244Z,98.10
2023-03-19T14:06:56.054Z,99.90
2023-03-19T14:09:34.754Z,99.90
2023-03-19T14:12:21.731Z,99.90
2023-03-19T14:14:52.729Z,99.90
2023-03-19T14:17:22.463Z,99.90
2023-03-19T14:19:54.407Z,99.90
2023-03-19T14:22:39.868Z,99.90
2023-03-19T14:25:19.355Z,99.90
2023-03-19T14:27:49.347Z,99.90
2023-03-19T14:30:27.447Z,99.90
2023-03-19T14:32:58.741Z,99.90
2023-03-19T14:35:37.852Z,99.90
2023-03-19T14:38:15.853Z,99.90
2023-03-19T14:40:47.708Z,99.90
2023-03-19T14:43:28.488Z,99.90
2023-03-19T14:46:00.953Z,99.90
2023-03-19T14:48:59.346Z,99.90
2023-03-19T14:51:49.745Z,99.90
2023-03-19T14:54:26.833Z,99.90
2023-03-19T14:56:57.625Z,99.90
2023-03-19T14:59:25.525Z,99.90
2023-03-19T16:51:56.472Z,99.90
2023-03-19T16:54:26.354Z,96.80
2023-03-19T16:56:54.262Z,95.50
2023-03-19T16:59:28.342Z,94.80
2023-03-19T17:01:57.028Z,95.50
2023-03-19T17:24:26.259Z,99.90
2023-03-19T17:26:55.390Z,99.90
2023-03-19T17:29:24.996Z,99.90
2023-03-19T17:31:54.842Z,99.90
2023-03-19T17:34:25.589Z,99.90
2023-03-19T17:36:58.345Z,99.90
2023-03-19T17:39:30.096Z,99.90
2023-03-19T17:41:58.049Z,99.90
2023-03-19T17:44:26.596Z,99.90
2023-03-19T17:46:55.575Z,99.90
2023-03-19T17:49:26.260Z,99.90
2023-03-19T17:51:54.199Z,99.90
2023-03-19T17:54:21.997Z,99.90
2023-03-19T17:56:51.354Z,99.90
2023-03-19T17:59:19.142Z,99.90
2023-03-19T18:01:47.966Z,99.90
2023-03-19T18:04:19.034Z,99.90
2023-03-19T18:06:51.109Z,99.90
2023-03-19T18:09:21.507Z,99.90
2023-03-19T18:11:50.780Z,99.90
2023-03-19T18:14:18.548Z,99.90
2023-03-19T18:16:47.339Z,99.90
2023-03-19T18:19:21.211Z,99.90
2023-03-19T18:21:49.034Z,99.90
2023-03-19T18:24:19.005Z,99.90
2023-03-19T18:26:46.886Z,99.90
2023-03-19T18:29:17.248Z,99.90
2023-03-19T18:31:46.948Z,99.90
2023-03-19T18:34:20.227Z,99.90
2023-03-19T18:36:48.405Z,99.90
2023-03-19T18:39:17.492Z,99.90
2023-03-19T18:41:45.586Z,99.90
2023-03-19T18:44:13.899Z,99.90
